Time;durP1;ratioP1;P1;durP2;ratioP2;P2;SDS_P1;SDS_P2;PMS_P1;PMS_P2;Temp;Humidity;BMP_temperature;BMP_pressure;BME280_temperature;BME280_humidity;BME280_pressure;Samples;Min_cycle;Max_cycle;Signal;HPM_P1;HPM_P2
2022/07/25 00:01:41;;;;;;;2.85;2.03;;;27.50;67.30;;;;;;5036369;28;20061;-77
2022/07/25 00:04:10;;;;;;;3.45;2.08;;;27.50;68.10;;;;;;5036147;28;20417;-77
2022/07/25 00:06:37;;;;;;;3.70;2.00;;;27.50;67.60;;;;;;5036449;28;20040;-77
2022/07/25 00:09:03;;;;;;;2.92;2.22;;;27.50;67.70;;;;;;5036078;28;20112;-76
2022/07/25 00:11:29;;;;;;;4.50;2.40;;;27.40;67.80;;;;;;5035936;28;20025;-76
2022/07/25 00:13:55;;;;;;;3.88;2.42;;;27.40;68.80;;;;;;5036003;28;20032;-75
2022/07/25 00:16:20;;;;;;;2.42;2.20;;;27.40;68.40;;;;;;5035969;28;20057;-76
2022/07/25 00:18:46;;;;;;;3.58;2.15;;;27.30;68.40;;;;;;5036058;28;20040;-75
2022/07/25 00:21:12;;;;;;;2.50;2.17;;;27.30;68.70;;;;;;5035785;28;20026;-76
2022/07/25 00:23:37;;;;;;;5.43;2.47;;;27.20;68.90;;;;;;5035837;28;20084;-76
2022/07/25 00:26:03;;;;;;;4.07;2.63;;;27.10;69.20;;;;;;5036017;28;20064;-75
2022/07/25 00:28:29;;;;;;;2.97;2.00;;;27.10;69.20;;;;;;5035966;28;20029;-78
2022/07/25 00:30:54;;;;;;;3.55;2.63;;;27.10;68.90;;;;;;5035636;28;20086;-76
2022/07/25 00:33:20;;;;;;;4.88;2.60;;;27.10;68.50;;;;;;5035773;28;20029;-76
2022/07/25 00:35:46;;;;;;;2.58;2.38;;;27.10;68.20;;;;;;5035825;28;20018;-76
2022/07/25 00:38:11;;;;;;;2.97;2.67;;;27.10;68.20;;;;;;5035306;28;20385;-76
2022/07/25 00:40:37;;;;;;;5.57;2.63;;;27.10;68.60;;;;;;5035652;28;20053;-76
2022/07/25 00:43:03;;;;;;;5.05;2.75;;;27.00;68.90;;;;;;5035351;28;20107;-76
2022/07/25 00:45:29;;;;;;;3.65;2.30;;;27.00;69.00;;;;;;5035716;28;20072;-76
2022/07/25 00:47:55;;;;;;;2.65;2.45;;;27.10;69.10;;;;;;5034996;28;20427;-75
2022/07/25 00:50:21;;;;;;;3.00;2.00;;;27.00;68.80;;;;;;5035566;28;20111;-76
2022/07/25 00:52:47;;;;;;;3.60;2.65;;;27.00;68.70;;;;;;5035600;28;20022;-76
2022/07/25 00:55:12;;;;;;;2.20;1.90;;;27.00;68.60;;;;;;5035148;28;20113;-76
2022/07/25 00:57:38;;;;;;;4.35;2.58;;;27.00;68.50;;;;;;5035494;28;20022;-76
2022/07/25 01:00:07;;;;;;;3.15;2.50;;;27.10;68.80;;;;;;5035250;28;20025;-76
2022/07/25 01:02:33;;;;;;;2.83;2.63;;;27.00;68.80;;;;;;5035375;28;20390;-76
2022/07/25 01:04:59;;;;;;;3.20;2.17;;;27.00;69.50;;;;;;5035233;28;20075;-75
2022/07/25 01:07:25;;;;;;;5.00;3.03;;;27.00;68.80;;;;;;5035029;28;20029;-76
2022/07/25 01:09:51;;;;;;;3.13;2.72;;;27.00;68.80;;;;;;5034849;28;20072;-75
2022/07/25 01:12:17;;;;;;;3.53;2.45;;;27.00;68.80;;;;;;5035024;28;20489;-76
2022/07/25 01:14:42;;;;;;;4.03;3.25;;;27.00;68.80;;;;;;5035121;28;20041;-76
2022/07/25 01:17:08;;;;;;;5.82;3.25;;;26.90;68.80;;;;;;5034829;28;20048;-76
2022/07/25 01:19:33;;;;;;;3.00;2.70;;;26.90;68.80;;;;;;5034924;28;20030;-75
2022/07/25 01:21:59;;;;;;;3.20;2.90;;;26.90;68.80;;;;;;5034633;28;20037;-76
2022/07/25 01:24:25;;;;;;;3.05;2.65;;;26.90;68.70;;;;;;5034642;28;20022;-76
2022/07/25 01:26:51;;;;;;;4.28;2.97;;;26.90;68.60;;;;;;5034381;28;20500;-76
2022/07/25 01:29:16;;;;;;;6.88;3.13;;;26.90;68.50;;;;;;5034582;28;20029;-76
2022/07/25 01:31:42;;;;;;;4.30;3.38;;;26.90;68.40;;;;;;5034769;28;20021;-76
2022/07/25 01:34:08;;;;;;;5.35;3.97;;;26.90;68.40;;;;;;5034462;28;20025;-76
2022/07/25 01:36:33;;;;;;;4.18;3.60;;;26.90;68.50;;;;;;5034470;28;20026;-76
2022/07/25 01:38:59;;;;;;;5.35;4.03;;;26.80;68.50;;;;;;5034333;28;20031;-77
2022/07/25 01:41:25;;;;;;;5.88;4.32;;;26.80;68.60;;;;;;5034461;28;20075;-76
2022/07/25 01:43:50;;;;;;;5.43;4.28;;;26.80;68.80;;;;;;5034319;28;20054;-76
2022/07/25 01:46:16;;;;;;;7.53;4.25;;;26.70;68.80;;;;;;5034244;28;20061;-77
2022/07/25 01:48:42;;;;;;;7.00;4.15;;;26.70;68.80;;;;;;5034026;28;20026;-77
2022/07/25 01:51:09;;;;;;;4.43;3.63;;;26.70;68.70;;;;;;5033850;28;20033;-77
2022/07/25 01:53:35;;;;;;;7.03;4.03;;;26.70;68.70;;;;;;5034331;28;20076;-76
2022/07/25 01:56:01;;;;;;;6.18;4.22;;;26.70;68.60;;;;;;5034340;28;20040;-76
2022/07/25 01:58:26;;;;;;;6.53;4.40;;;26.70;68.90;;;;;;5033330;28;20119;-76
2022/07/25 02:00:52;;;;;;;4.65;3.70;;;26.70;69.00;;;;;;5034198;28;20041;-76
2022/07/25 02:03:29;;;;;;;5.63;3.72;;;26.60;68.90;;;;;;5034048;28;20425;-76
2022/07/25 02:06:06;;;;;;;6.22;4.03;;;26.70;69.00;;;;;;5033966;28;20025;-76
2022/07/25 02:08:33;;;;;;;5.93;4.20;;;26.70;69.00;;;;;;5033852;28;20029;-76
2022/07/25 02:10:59;;;;;;;5.68;4.40;;;26.70;69.10;;;;;;5033819;28;20021;-76
2022/07/25 02:13:25;;;;;;;5.10;3.50;;;26.60;69.10;;;;;;5033773;28;20033;-76
2022/07/25 02:15:51;;;;;;;9.10;4.20;;;26.60;69.20;;;;;;5033581;28;20025;-76
2022/07/25 02:18:17;;;;;;;4.40;3.90;;;26.60;69.20;;;;;;5033968;28;20025;-76
2022/07/25 02:20:42;;;;;;;5.55;3.97;;;26.60;69.20;;;;;;5033501;28;20381;-76
2022/07/25 02:23:08;;;;;;;4.43;3.80;;;26.60;69.30;;;;;;5033763;28;20164;-76
2022/07/25 02:25:34;;;;;;;6.03;4.20;;;26.60;69.40;;;;;;5033548;28;20026;-76
2022/07/25 02:28:00;;;;;;;5.82;4.22;;;26.50;69.50;;;;;;5033529;28;20111;-76
2022/07/25 02:30:26;;;;;;;5.57;4.05;;;26.50;69.80;;;;;;5033448;28;20021;-76
2022/07/25 02:32:52;;;;;;;5.03;4.25;;;26.50;70.30;;;;;;5033458;28;20108;-76
2022/07/25 02:35:17;;;;;;;6.13;4.57;;;26.40;70.30;;;;;;5033557;28;20025;-77
2022/07/25 02:37:43;;;;;;;5.32;3.97;;;26.40;70.30;;;;;;5033140;28;20136;-76
2022/07/25 02:40:09;;;;;;;6.85;4.45;;;26.30;70.10;;;;;;5033724;28;20026;-76
2022/07/25 02:42:35;;;;;;;7.20;4.18;;;26.30;70.40;;;;;;5033621;28;20033;-75
2022/07/25 02:45:01;;;;;;;4.32;3.85;;;26.20;70.60;;;;;;5033140;28;20451;-75
2022/07/25 02:47:26;;;;;;;4.57;3.60;;;26.20;70.70;;;;;;5033417;28;20416;-76
2022/07/25 02:49:52;;;;;;;4.85;3.45;;;26.20;70.70;;;;;;5032900;28;20030;-76
2022/07/25 02:52:18;;;;;;;7.38;5.28;;;26.20;70.70;;;;;;5033488;28;20030;-76
2022/07/25 02:54:44;;;;;;;6.50;4.28;;;26.20;71.60;;;;;;5033149;28;20384;-76
2022/07/25 02:57:09;;;;;;;4.93;4.05;;;26.20;70.80;;;;;;5033452;28;20029;-76
2022/07/25 02:59:35;;;;;;;6.55;4.20;;;26.20;70.80;;;;;;5033195;28;20461;-76
2022/07/25 03:02:00;;;;;;;6.40;5.30;;;26.10;71.00;;;;;;5033020;28;20034;-76
2022/07/25 03:04:26;;;;;;;6.53;4.85;;;26.10;71.20;;;;;;5033335;28;20025;-76
2022/07/25 03:06:51;;;;;;;9.63;4.32;;;26.00;71.20;;;;;;5033061;28;20017;-76
2022/07/25 03:09:18;;;;;;;6.00;4.65;;;26.00;71.30;;;;;;5033174;28;20026;-76
2022/07/25 03:11:43;;;;;;;6.50;4.80;;;26.00;71.30;;;;;;5037495;28;20056;-76
2022/07/25 03:14:09;;;;;;;5.38;4.30;;;26.00;71.20;;;;;;5037332;28;20029;-75
2022/07/25 03:16:35;;;;;;;6.88;4.90;;;26.00;71.20;;;;;;5037019;28;20083;-76
2022/07/25 03:19:01;;;;;;;6.68;4.43;;;26.00;71.30;;;;;;5037234;28;20028;-75
2022/07/25 03:21:26;;;;;;;5.07;4.10;;;26.00;71.50;;;;;;5037132;28;20384;-76
2022/07/25 03:23:52;;;;;;;4.75;4.35;;;25.90;71.50;;;;;;5036889;28;20025;-76
2022/07/25 03:26:18;;;;;;;7.45;4.35;;;25.90;71.60;;;;;;5036909;28;20381;-76
2022/07/25 03:28:43;;;;;;;4.57;4.07;;;26.00;71.80;;;;;;5037355;28;20025;-76
2022/07/25 03:31:09;;;;;;;7.32;5.50;;;26.00;71.80;;;;;;5036765;28;20435;-76
2022/07/25 03:33:34;;;;;;;6.20;5.15;;;26.00;71.70;;;;;;5036645;28;20028;-76
2022/07/25 03:36:00;;;;;;;5.20;4.72;;;25.90;71.60;;;;;;5036703;28;20084;-76
2022/07/25 03:38:25;;;;;;;8.02;5.40;;;25.90;71.60;;;;;;5036592;28;20026;-76
2022/07/25 03:40:51;;;;;;;5.28;4.78;;;25.90;71.60;;;;;;5036775;28;20060;-76
2022/07/25 03:43:17;;;;;;;6.18;5.60;;;26.00;71.70;;;;;;5036542;28;20033;-76
2022/07/25 03:45:42;;;;;;;6.25;5.15;;;25.90;71.60;;;;;;5036508;28;20151;-76
2022/07/25 03:48:08;;;;;;;5.88;4.95;;;25.90;71.70;;;;;;5036726;28;20104;-76
2022/07/25 03:50:33;;;;;;;5.50;4.95;;;25.90;71.80;;;;;;5036414;28;20021;-76
2022/07/25 03:52:59;;;;;;;6.60;4.95;;;25.90;71.70;;;;;;5036381;28;20022;-76
2022/07/25 03:55:24;;;;;;;6.13;5.20;;;25.80;71.90;;;;;;5036485;28;20061;-76
2022/07/25 03:57:50;;;;;;;3.83;3.50;;;25.70;72.20;;;;;;5036183;28;20022;-76
2022/07/25 04:00:16;;;;;;;7.65;5.07;;;25.70;72.20;;;;;;5036554;28;20120;-76
2022/07/25 04:02:42;;;;;;;7.05;4.68;;;25.70;72.30;;;;;;5036108;28;20041;-76
2022/07/25 04:05:08;;;;;;;10.55;5.18;;;25.70;72.40;;;;;;5036444;28;20358;-76
2022/07/25 04:07:34;;;;;;;6.00;4.70;;;25.70;72.60;;;;;;5036342;28;20025;-76
2022/07/25 04:10:00;;;;;;;5.57;4.18;;;25.70;72.60;;;;;;5036077;28;20479;-75
2022/07/25 04:12:26;;;;;;;6.25;4.93;;;25.70;72.40;;;;;;5035884;28;20029;-76
2022/07/25 04:14:51;;;;;;;6.95;4.68;;;25.70;72.40;;;;;;5036252;28;20025;-75
2022/07/25 04:17:17;;;;;;;4.47;4.07;;;25.80;72.50;;;;;;5035826;28;20026;-76
2022/07/25 04:19:42;;;;;;;5.55;4.32;;;25.80;72.40;;;;;;5036159;28;20029;-75
2022/07/25 04:22:08;;;;;;;6.43;5.43;;;25.80;72.30;;;;;;5034989;28;20091;-75
2022/07/25 04:24:33;;;;;;;5.78;4.82;;;25.80;72.30;;;;;;5036074;28;20018;-75
2022/07/25 04:26:59;;;;;;;6.13;4.97;;;25.80;72.30;;;;;;5036077;28;20064;-76
2022/07/25 04:29:24;;;;;;;6.03;5.22;;;25.80;72.30;;;;;;5035708;28;20021;-76
2022/07/25 04:31:50;;;;;;;5.88;4.28;;;25.80;72.40;;;;;;5035935;28;20036;-76
2022/07/25 04:34:16;;;;;;;7.00;4.57;;;25.80;72.30;;;;;;5035682;28;20473;-76
2022/07/25 04:36:41;;;;;;;7.88;6.25;;;25.80;72.30;;;;;;5035785;28;20095;-76
2022/07/25 04:39:07;;;;;;;6.50;5.13;;;25.80;72.70;;;;;;5035754;28;20025;-76
2022/07/25 04:41:33;;;;;;;10.30;5.90;;;25.70;73.00;;;;;;5035669;28;20527;-76
2022/07/25 04:43:58;;;;;;;6.03;5.05;;;25.60;73.10;;;;;;5035313;28;20049;-76
2022/07/25 04:46:24;;;;;;;6.97;5.38;;;25.60;73.10;;;;;;5035122;28;20112;-75
2022/07/25 04:48:50;;;;;;;6.28;5.68;;;25.60;72.80;;;;;;5035588;28;20029;-75
2022/07/25 04:51:16;;;;;;;6.68;5.07;;;25.70;72.40;;;;;;5035259;28;20061;-75
2022/07/25 04:53:42;;;;;;;6.75;5.88;;;25.70;72.40;;;;;;5035143;28;20076;-75
2022/07/25 04:56:08;;;;;;;6.28;5.68;;;25.70;72.40;;;;;;5035205;28;20029;-76
2022/07/25 04:58:34;;;;;;;6.05;5.43;;;25.60;72.80;;;;;;5034967;28;20025;-76
2022/07/25 05:00:59;;;;;;;6.88;5.53;;;25.60;72.80;;;;;;5035259;28;20087;-75
2022/07/25 05:03:25;;;;;;;6.63;5.75;;;25.60;72.50;;;;;;5034978;28;20033;-76
2022/07/25 05:05:50;;;;;;;8.05;5.28;;;25.60;72.20;;;;;;5034970;28;20025;-76
2022/07/25 05:08:16;;;;;;;6.07;5.15;;;25.70;72.30;;;;;;5034893;28;20021;-76
2022/07/25 05:10:42;;;;;;;5.93;4.93;;;25.60;72.40;;;;;;5034848;28;20025;-76
2022/07/25 05:13:08;;;;;;;6.60;5.35;;;25.70;72.60;;;;;;5034898;28;20124;-76
2022/07/25 05:15:34;;;;;;;6.47;5.15;;;25.70;73.00;;;;;;5035003;28;20030;-76
2022/07/25 05:17:59;;;;;;;7.78;5.15;;;25.70;72.90;;;;;;5016822;28;20490;-76
2022/07/25 05:20:25;;;;;;;5.93;5.28;;;25.70;73.80;;;;;;5034929;28;20025;-76
2022/07/25 05:22:51;;;;;;;8.30;5.65;;;25.70;73.60;;;;;;5034564;28;20034;-76
2022/07/25 05:25:16;;;;;;;8.65;5.80;;;25.70;73.60;;;;;;5034697;28;20111;-77
2022/07/25 05:27:42;;;;;;;8.40;5.53;;;25.70;73.50;;;;;;5034939;28;20145;-77
2022/07/25 05:30:10;;;;;;;9.63;5.63;;;25.70;73.50;;;;;;5034552;28;20025;-77
2022/07/25 05:32:36;;;;;;;5.57;5.05;;;25.70;73.50;;;;;;5033940;28;20045;-76
2022/07/25 05:35:03;;;;;;;6.93;5.45;;;25.80;73.60;;;;;;5033846;28;20033;-76
2022/07/25 05:37:28;;;;;;;6.47;5.88;;;25.80;73.50;;;;;;5034640;28;20079;-76
2022/07/25 05:39:54;;;;;;;8.98;5.80;;;25.80;73.40;;;;;;5034476;28;20428;-77
2022/07/25 05:42:19;;;;;;;10.95;6.85;;;25.70;73.20;;;;;;5034473;28;20037;-76
2022/07/25 05:44:45;;;;;;;9.27;7.03;;;25.70;73.00;;;;;;5034064;28;20487;-76
2022/07/25 05:47:11;;;;;;;7.15;6.45;;;25.70;72.80;;;;;;5034306;28;20033;-76
2022/07/25 05:49:37;;;;;;;9.48;6.10;;;25.70;72.80;;;;;;5034397;28;20080;-77
2022/07/25 05:52:04;;;;;;;8.35;6.35;;;25.70;73.50;;;;;;5034073;28;20025;-76
2022/07/25 05:54:29;;;;;;;8.77;7.13;;;25.70;73.50;;;;;;5034100;28;20022;-77
2022/07/25 05:56:55;;;;;;;8.82;7.93;;;25.60;73.30;;;;;;5034043;28;20025;-76
2022/07/25 05:59:20;;;;;;;7.32;6.63;;;25.70;72.90;;;;;;5033962;28;20020;-77
2022/07/25 06:01:46;;;;;;;13.35;8.23;;;25.60;72.90;;;;;;5033914;28;20036;-77
2022/07/25 06:04:11;;;;;;;14.68;9.05;;;25.60;73.20;;;;;;5033648;28;20475;-76
2022/07/25 06:06:37;;;;;;;12.95;7.95;;;25.60;72.40;;;;;;5034017;28;20034;-77
2022/07/25 06:09:03;;;;;;;11.10;7.90;;;25.60;72.50;;;;;;5034024;28;20056;-76
2022/07/25 06:11:30;;;;;;;10.43;8.27;;;25.60;72.30;;;;;;5033786;28;20056;-77
2022/07/25 06:13:56;;;;;;;8.55;7.65;;;25.60;72.10;;;;;;5033552;28;20025;-77
2022/07/25 06:16:22;;;;;;;11.75;8.23;;;25.60;72.30;;;;;;5033843;28;20021;-75
2022/07/25 06:18:47;;;;;;;8.35;7.47;;;25.60;72.10;;;;;;5034114;28;20025;-76
2022/07/25 06:21:13;;;;;;;10.35;8.00;;;25.50;72.30;;;;;;5033639;28;20034;-76
2022/07/25 06:23:39;;;;;;;11.90;8.32;;;25.50;72.20;;;;;;5033840;28;20028;-76
2022/07/25 06:26:09;;;;;;;10.45;7.90;;;25.50;72.60;;;;;;5033503;28;20056;-76
2022/07/25 06:28:35;;;;;;;9.32;7.97;;;25.60;72.70;;;;;;5033735;28;20025;-76
2022/07/25 06:31:01;;;;;;;14.40;8.35;;;25.60;72.60;;;;;;5033381;28;20029;-76
2022/07/25 06:33:26;;;;;;;13.25;8.13;;;25.70;72.60;;;;;;5033702;28;20033;-76
2022/07/25 06:35:52;;;;;;;10.57;9.18;;;25.70;72.40;;;;;;5033146;28;20377;-76
2022/07/25 06:38:18;;;;;;;11.13;8.07;;;25.70;72.10;;;;;;5033472;28;20151;-76
2022/07/25 06:40:44;;;;;;;11.85;7.50;;;25.60;72.50;;;;;;5033292;28;20449;-76
2022/07/25 06:43:09;;;;;;;10.30;8.60;;;25.60;72.70;;;;;;5033005;28;20053;-75
2022/07/25 06:45:35;;;;;;;11.73;8.35;;;25.60;72.90;;;;;;5033209;28;20029;-75
2022/07/25 06:48:00;;;;;;;12.60;8.40;;;25.50;72.70;;;;;;5033274;28;20018;-76
2022/07/25 06:50:26;;;;;;;12.00;8.27;;;25.40;72.60;;;;;;5033180;28;20048;-76
2022/07/25 06:52:53;;;;;;;8.77;6.35;;;25.40;72.90;;;;;;5033447;28;20025;-76
2022/07/25 06:55:19;;;;;;;10.15;7.60;;;25.40;73.30;;;;;;5033244;28;20029;-76
2022/07/25 06:57:45;;;;;;;8.50;7.57;;;25.40;73.40;;;;;;5033259;28;20029;-76
2022/07/25 07:00:12;;;;;;;12.80;7.97;;;25.40;73.10;;;;;;5033216;28;20026;-76
2022/07/25 07:02:48;;;;;;;13.23;7.68;;;25.40;73.30;;;;;;5033227;28;20048;-76
2022/07/25 07:05:14;;;;;;;13.38;7.70;;;25.30;73.10;;;;;;5033381;28;20045;-76
2022/07/25 07:07:39;;;;;;;13.25;7.20;;;25.30;73.30;;;;;;5033290;28;20079;-76
2022/07/25 07:10:05;;;;;;;9.25;6.90;;;25.20;73.40;;;;;;5032994;28;20037;-76
2022/07/25 07:12:31;;;;;;;9.57;6.90;;;25.20;73.80;;;;;;5032729;28;20071;-75
2022/07/25 07:14:56;;;;;;;10.05;6.65;;;25.30;74.00;;;;;;5032961;28;20025;-75
2022/07/25 07:17:22;;;;;;;7.75;6.82;;;25.30;74.10;;;;;;5033058;28;20029;-75
2022/07/25 07:19:48;;;;;;;10.15;7.30;;;25.40;74.10;;;;;;5033020;28;20500;-75
2022/07/25 07:22:13;;;;;;;8.27;6.88;;;25.40;73.70;;;;;;5032844;28;20040;-76
2022/07/25 07:24:39;;;;;;;10.18;6.40;;;25.50;73.50;;;;;;5032805;28;20023;-76
2022/07/25 07:27:04;;;;;;;9.77;6.10;;;25.50;73.80;;;;;;5032831;28;20160;-76
2022/07/25 07:29:30;;;;;;;7.28;6.18;;;25.50;73.00;;;;;;5033118;28;20033;-76
2022/07/25 07:31:55;;;;;;;5.90;5.10;;;25.50;73.00;;;;;;5032946;28;20477;-76
2022/07/25 07:34:21;;;;;;;7.90;4.72;;;25.50;71.90;;;;;;5032767;28;20022;-76
2022/07/25 07:36:47;;;;;;;5.70;3.95;;;25.60;71.50;;;;;;5033059;28;20523;-76
2022/07/25 07:39:12;;;;;;;4.15;3.75;;;25.60;71.20;;;;;;5033044;28;20032;-76
2022/07/25 07:41:38;;;;;;;6.25;3.20;;;25.70;70.90;;;;;;5032579;28;20025;-76
2022/07/25 07:44:04;;;;;;;4.50;3.05;;;25.60;70.40;;;;;;5032434;28;20054;-76
2022/07/25 07:46:30;;;;;;;5.57;3.10;;;25.60;70.30;;;;;;5032801;28;20017;-76
2022/07/25 07:48:55;;;;;;;3.70;3.08;;;25.60;70.00;;;;;;5032432;28;20026;-76
2022/07/25 07:51:21;;;;;;;3.97;2.90;;;25.60;70.40;;;;;;5032713;28;20431;-76
2022/07/25 07:56:31;;;;;;;3.40;2.70;;;25.70;69.70;;;;;;5032744;28;20048;-76
2022/07/25 07:58:56;;;;;;;3.17;2.47;;;25.70;69.30;;;;;;5036285;28;20469;-76
2022/07/25 08:01:23;;;;;;;3.78;3.10;;;25.70;69.10;;;;;;5036240;28;20033;-77
2022/07/25 08:03:49;;;;;;;3.78;2.17;;;25.70;68.80;;;;;;5036032;28;20033;-76
2022/07/25 08:06:15;;;;;;;5.50;2.38;;;25.70;69.10;;;;;;5036173;28;20028;-77
2022/07/25 08:08:40;;;;;;;3.65;2.28;;;25.80;68.70;;;;;;5036048;28;20045;-76
2022/07/25 08:11:06;;;;;;;3.70;2.05;;;25.90;68.50;;;;;;5036322;28;20467;-77
2022/07/25 08:13:33;;;;;;;2.40;1.90;;;25.90;67.30;;;;;;5036155;28;20044;-76
2022/07/25 08:16:00;;;;;;;4.70;2.13;;;26.00;67.50;;;;;;5035776;28;20477;-76
2022/07/25 08:18:31;;;;;;;4.68;1.90;;;26.00;67.00;;;;;;5035891;28;20034;-76
2022/07/25 08:20:59;;;;;;;4.45;1.70;;;26.00;67.60;;;;;;5036041;28;20441;-76
2022/07/25 08:23:26;;;;;;;1.85;0.95;;;25.90;68.80;;;;;;5035536;28;20455;-76
2022/07/25 08:25:52;;;;;;;2.90;1.08;;;25.90;67.70;;;;;;5036014;28;20036;-76
2022/07/25 08:28:18;;;;;;;4.82;1.17;;;25.80;66.80;;;;;;5036044;28;20388;-76
2022/07/25 08:30:43;;;;;;;1.88;0.98;;;25.80;66.90;;;;;;5035775;28;20457;-77
2022/07/25 08:33:20;;;;;;;4.00;0.98;;;25.80;66.30;;;;;;5035681;28;20065;-77
2022/07/25 08:35:53;;;;;;;3.50;1.25;;;25.90;66.40;;;;;;5035749;28;20029;-76
2022/07/25 08:38:20;;;;;;;2.90;1.02;;;26.00;66.10;;;;;;5035597;28;20025;-76
2022/07/25 08:40:46;;;;;;;2.25;0.80;;;26.10;67.10;;;;;;5035466;28;20412;-76
2022/07/25 08:43:13;;;;;;;2.55;0.68;;;26.10;67.20;;;;;;5035264;28;20119;-77
2022/07/25 08:45:47;;;;;;;2.20;0.80;;;26.10;67.10;;;;;;5035661;28;20033;-77
2022/07/25 08:48:16;;;;;;;4.22;0.77;;;26.10;66.70;;;;;;5035167;28;20049;-76
2022/07/25 08:50:42;;;;;;;1.17;0.75;;;26.10;66.70;;;;;;5035341;28;20503;-77
2022/07/25 08:53:08;;;;;;;4.63;1.00;;;26.10;67.20;;;;;;5035502;28;20025;-76
2022/07/25 08:55:33;;;;;;;3.63;0.88;;;26.20;67.60;;;;;;5035416;28;20065;-77
2022/07/25 08:57:59;;;;;;;2.72;0.98;;;26.20;68.20;;;;;;5035319;28;20159;-76
2022/07/25 09:00:30;;;;;;;3.10;0.70;;;26.20;69.10;;;;;;5035204;28;20053;-76
2022/07/25 09:03:01;;;;;;;2.50;0.70;;;26.30;69.30;;;;;;5034944;28;20042;-77
2022/07/25 09:05:30;;;;;;;3.95;0.65;;;26.40;68.90;;;;;;5035284;28;20534;-76
2022/07/25 09:07:57;;;;;;;1.95;0.70;;;26.40;69.10;;;;;;5034761;28;20500;-76
2022/07/25 09:10:27;;;;;;;4.18;0.80;;;26.40;69.40;;;;;;5035254;28;20026;-77
2022/07/25 09:12:55;;;;;;;2.30;0.50;;;26.30;70.00;;;;;;5035270;28;20032;-76
2022/07/25 09:15:28;;;;;;;3.55;0.75;;;26.30;70.40;;;;;;5035057;28;20024;-76
2022/07/25 09:17:58;;;;;;;1.40;0.50;;;26.30;71.10;;;;;;5035220;28;20033;-76
2022/07/25 09:20:39;;;;;;;2.08;0.50;;;26.30;71.80;;;;;;5034472;28;20029;-77
2022/07/25 09:23:05;;;;;;;2.40;0.40;;;26.30;71.80;;;;;;5034696;28;20042;-76
2022/07/25 09:25:31;;;;;;;1.98;0.40;;;26.30;71.70;;;;;;5034975;28;20023;-76
2022/07/25 09:28:16;;;;;;;2.95;0.30;;;26.30;71.70;;;;;;5034781;28;20322;-77
2022/07/25 09:31:12;;;;;;;2.95;0.35;;;26.30;71.20;;;;;;5034714;28;20021;-77
2022/07/25 09:33:48;;;;;;;3.38;0.30;;;26.20;71.40;;;;;;5025737;28;20108;-76
2022/07/25 09:36:14;;;;;;;0.77;0.30;;;26.10;71.30;;;;;;5034411;28;20029;-76
2022/07/25 09:38:39;;;;;;;2.42;0.40;;;26.10;72.40;;;;;;5034594;28;20052;-76
2022/07/25 09:41:06;;;;;;;2.85;0.43;;;26.10;72.30;;;;;;5034075;28;20100;-77
2022/07/25 09:43:39;;;;;;;2.88;0.93;;;26.30;72.60;;;;;;5034308;28;20095;-76
2022/07/25 09:46:06;;;;;;;1.30;0.40;;;26.40;73.40;;;;;;5034417;28;20080;-77
2022/07/25 09:48:33;;;;;;;7.35;0.50;;;26.50;74.00;;;;;;5034107;28;20052;-76
2022/07/25 09:50:59;;;;;;;5.88;0.40;;;26.60;73.50;;;;;;5034356;28;20029;-76
2022/07/25 09:53:26;;;;;;;3.25;0.38;;;26.70;73.60;;;;;;5033812;28;20112;-76
2022/07/25 09:55:55;;;;;;;2.05;0.40;;;27.00;72.80;;;;;;5034014;28;20021;-77
2022/07/25 09:58:22;;;;;;;1.88;0.30;;;27.00;71.60;;;;;;5034171;28;20053;-77
2022/07/25 10:00:48;;;;;;;2.50;0.28;;;27.20;70.80;;;;;;5033981;28;20029;-77
2022/07/25 10:03:43;;;;;;;2.60;0.38;;;27.10;70.00;;;;;;5033879;28;20037;-77
2022/07/25 10:06:31;;;;;;;1.83;0.30;;;27.10;70.00;;;;;;5034061;28;20040;-76
2022/07/25 10:08:57;;;;;;;1.83;0.30;;;27.10;69.90;;;;;;5034227;28;20105;-76
2022/07/25 10:11:27;;;;;;;3.40;0.30;;;26.90;70.30;;;;;;5033813;28;20079;-76
2022/07/25 10:13:54;;;;;;;1.75;0.50;;;26.90;69.20;;;;;;5034040;28;20022;-77
2022/07/25 10:16:24;;;;;;;3.83;0.50;;;26.90;69.20;;;;;;5033988;28;20021;-76
2022/07/25 10:18:53;;;;;;;1.88;0.40;;;26.80;70.00;;;;;;5033536;28;20032;-76
2022/07/25 10:21:20;;;;;;;5.00;0.68;;;26.80;70.70;;;;;;5033246;28;20034;-77
2022/07/25 10:24:03;;;;;;;4.80;0.60;;;26.80;71.50;;;;;;5033639;28;20033;-76
2022/07/25 10:26:30;;;;;;;3.08;0.55;;;26.90;71.60;;;;;;5034009;28;20033;-77
2022/07/25 10:28:57;;;;;;;7.20;0.50;;;27.00;71.80;;;;;;5033709;28;20029;-77
2022/07/25 10:31:34;;;;;;;3.03;0.52;;;27.00;71.10;;;;;;5033522;28;20386;-77
2022/07/25 10:34:12;;;;;;;3.35;0.57;;;27.10;71.40;;;;;;5033534;28;20025;-77
2022/07/25 10:36:42;;;;;;;2.33;0.50;;;27.10;71.50;;;;;;5033665;28;20026;-77
2022/07/25 10:39:13;;;;;;;4.68;0.75;;;27.10;71.90;;;;;;5033582;28;20022;-76
2022/07/25 10:41:40;;;;;;;6.55;0.50;;;27.10;71.50;;;;;;5033675;28;20048;-77
2022/07/25 10:44:11;;;;;;;3.13;0.57;;;27.10;71.50;;;;;;5033079;28;20049;-77
2022/07/25 10:46:37;;;;;;;1.38;0.43;;;27.20;71.50;;;;;;5033110;28;20025;-77
2022/07/25 10:49:05;;;;;;;3.67;0.50;;;27.20;70.20;;;;;;5033403;28;20026;-77
2022/07/25 10:51:34;;;;;;;2.38;0.57;;;27.20;68.80;;;;;;5033230;28;20053;-77
2022/07/25 10:54:11;;;;;;;2.25;0.38;;;27.10;67.60;;;;;;5033116;28;20040;-77
2022/07/25 10:56:36;;;;;;;5.45;0.50;;;26.90;66.30;;;;;;5033275;28;20025;-77
2022/07/25 10:59:02;;;;;;;4.65;0.50;;;26.90;66.60;;;;;;5033164;28;20056;-77
2022/07/25 11:01:32;;;;;;;2.40;0.50;;;26.90;67.40;;;;;;5033179;28;20064;-77
2022/07/25 11:04:01;;;;;;;2.85;0.40;;;27.00;68.10;;;;;;5033341;28;20030;-77
2022/07/25 11:06:39;;;;;;;3.28;0.88;;;27.10;68.20;;;;;;5033275;28;20065;-77
2022/07/25 11:09:13;;;;;;;7.63;0.88;;;27.20;69.40;;;;;;5032924;28;20121;-77
2022/07/25 11:11:42;;;;;;;5.60;0.68;;;27.30;68.40;;;;;;5033076;28;20021;-77
2022/07/25 11:14:22;;;;;;;2.72;0.50;;;27.30;67.10;;;;;;5032981;28;20386;-77
2022/07/25 11:16:50;;;;;;;3.38;0.50;;;27.20;67.40;;;;;;5033161;28;20030;-77
2022/07/25 11:19:27;;;;;;;5.32;0.77;;;27.10;67.80;;;;;;5033121;28;20022;-76
2022/07/25 11:21:58;;;;;;;5.75;0.75;;;27.00;68.70;;;;;;5032944;28;20037;-76
2022/07/25 11:24:41;;;;;;;5.85;0.70;;;27.00;68.80;;;;;;5032906;28;20021;-77
2022/07/25 11:27:09;;;;;;;3.63;0.73;;;26.90;69.20;;;;;;5033118;28;20075;-77
2022/07/25 11:29:37;;;;;;;4.93;0.63;;;26.80;70.00;;;;;;5032864;28;20021;-77
2022/07/25 11:32:04;;;;;;;4.05;0.73;;;26.90;70.40;;;;;;5035822;28;20053;-76
2022/07/25 11:34:32;;;;;;;4.25;0.57;;;26.90;69.80;;;;;;5036791;28;20100;-77
2022/07/25 11:37:01;;;;;;;3.75;0.70;;;26.90;70.20;;;;;;5036677;28;20035;-76
2022/07/25 11:39:28;;;;;;;2.67;0.60;;;26.90;68.90;;;;;;5036941;28;20091;-76
2022/07/25 11:42:11;;;;;;;5.85;0.80;;;26.80;69.30;;;;;;5036497;28;20037;-76
2022/07/25 11:44:39;;;;;;;4.00;0.95;;;26.90;69.30;;;;;;5036285;28;20045;-76
2022/07/25 11:47:07;;;;;;;3.15;0.70;;;26.70;69.10;;;;;;5036541;28;20026;-76
2022/07/25 11:49:47;;;;;;;4.65;0.60;;;26.60;69.00;;;;;;5036412;28;20033;-77
2022/07/25 11:52:22;;;;;;;5.05;0.80;;;26.50;69.10;;;;;;5036738;28;20029;-77
2022/07/25 11:55:17;;;;;;;3.70;0.70;;;26.30;68.80;;;;;;5036465;28;20025;-77
2022/07/25 11:57:45;;;;;;;4.45;0.90;;;26.30;68.50;;;;;;5034855;28;20036;-76
2022/07/25 12:00:19;;;;;;;4.72;0.80;;;26.20;69.00;;;;;;5036583;28;20021;-77
2022/07/25 12:02:46;;;;;;;4.10;0.95;;;26.10;70.10;;;;;;5036028;28;20484;-77
2022/07/25 12:05:14;;;;;;;5.53;0.85;;;26.00;70.50;;;;;;5036442;28;20029;-76
2022/07/25 12:07:45;;;;;;;4.90;0.80;;;25.90;69.80;;;;;;5036164;28;20021;-76
2022/07/25 12:10:15;;;;;;;3.58;0.75;;;25.90;69.30;;;;;;5036087;28;20025;-76
2022/07/25 12:12:55;;;;;;;8.57;0.50;;;25.80;68.50;;;;;;5036124;28;20051;-76
2022/07/25 12:15:20;;;;;;;5.50;1.02;;;25.70;68.60;;;;;;5036026;28;20465;-76
2022/07/25 12:17:47;;;;;;;5.10;0.70;;;25.60;69.20;;;;;;5036289;28;20052;-76
2022/07/25 12:20:18;;;;;;;7.53;1.30;;;25.70;69.70;;;;;;5036046;28;20026;-76
2022/07/25 12:22:45;;;;;;;5.05;0.90;;;25.80;67.80;;;;;;5035987;28;20047;-76
2022/07/25 12:25:11;;;;;;;7.72;0.88;;;26.00;66.80;;;;;;5036151;28;20038;-76
2022/07/25 12:27:37;;;;;;;5.20;0.77;;;26.10;66.70;;;;;;5035696;28;20038;-76
2022/07/25 12:30:05;;;;;;;5.25;1.02;;;26.10;65.90;;;;;;5035974;28;20028;-76
2022/07/25 12:32:31;;;;;;;5.70;1.20;;;26.00;66.20;;;;;;5035743;28;20508;-76
2022/07/25 12:34:57;;;;;;;5.90;1.23;;;26.00;67.50;;;;;;5035997;28;20026;-76
2022/07/25 12:37:23;;;;;;;7.80;1.05;;;25.90;67.40;;;;;;5035253;28;20489;-76
2022/07/25 12:39:49;;;;;;;9.15;1.58;;;25.80;67.50;;;;;;5035663;28;20106;-76
2022/07/25 12:42:14;;;;;;;7.18;1.80;;;25.70;68.00;;;;;;5034870;28;20048;-76
2022/07/25 12:44:40;;;;;;;6.50;1.40;;;25.70;68.40;;;;;;5035286;28;20128;-77
2022/07/25 12:47:06;;;;;;;7.15;1.27;;;25.80;68.40;;;;;;5035695;28;20032;-77
2022/07/25 12:49:31;;;;;;;6.18;1.33;;;25.90;68.80;;;;;;5035378;28;20049;-77